createdAt,value
2022-12-11T00:00:48.202Z,96629.81
2022-12-11T00:03:17.154Z,96634.75
2022-12-11T00:05:44.590Z,96632.50
2022-12-11T00:08:11.823Z,96633.13
2022-12-11T00:10:38.410Z,96632.22
2022-12-11T00:13:05.438Z,96631.91
2022-12-11T00:15:32.046Z,96630.75
2022-12-11T00:17:58.501Z,96634.22
2022-12-11T00:20:24.955Z,96634.84
2022-12-11T00:22:51.355Z,96629.72
2022-12-11T00:25:17.985Z,96630.56
2022-12-11T00:27:46.667Z,96630.41
2022-12-11T00:30:14.013Z,96625.53
2022-12-11T00:32:40.622Z,96625.03
2022-12-11T00:35:07.385Z,96623.03
2022-12-11T00:37:33.989Z,96624.25
2022-12-11T00:40:00.499Z,96630.53
2022-12-11T00:42:26.909Z,96619.66
2022-12-11T00:44:54.844Z,96621.13
2022-12-11T00:47:21.263Z,96629.25
2022-12-11T00:49:49.957Z,96627.16
2022-12-11T00:52:17.784Z,96627.84
2022-12-11T00:54:44.561Z,96623.56
2022-12-11T00:57:10.982Z,96625.88
2022-12-11T00:59:37.551Z,96629.28
2022-12-11T01:02:03.951Z,96630.94
2022-12-11T01:04:30.427Z,96640.69
2022-12-11T01:06:56.896Z,96642.00
2022-12-11T01:09:41.934Z,96646.25
2022-12-11T01:12:08.410Z,96642.66
2022-12-11T01:14:34.840Z,96647.25
2022-12-11T01:17:01.411Z,96649.53
2022-12-11T01:19:28.520Z,96651.22
2022-12-11T01:21:55.006Z,96662.06
2022-12-11T01:24:21.490Z,96665.63
2022-12-11T01:26:47.908Z,96656.22
2022-12-11T01:29:15.275Z,96660.50
2022-12-11T01:31:41.702Z,96669.81
2022-12-11T01:34:08.139Z,96665.34
2022-12-11T01:36:34.535Z,96673.78
2022-12-11T01:39:01.035Z,96673.19
2022-12-11T01:41:27.573Z,96662.50
2022-12-11T01:44:27.447Z,96666.59
2022-12-11T01:46:54.250Z,96674.56
2022-12-11T01:49:25.847Z,96680.16
2022-12-11T01:51:52.193Z,96670.88
2022-12-11T01:54:21.585Z,96687.06
2022-12-11T01:56:51.687Z,96681.91
2022-12-11T01:59:24.404Z,96677.44
2022-12-11T02:02:06.438Z,96688.88
2022-12-11T02:04:34.759Z,96680.28
2022-12-11T02:07:01.219Z,96687.88
2022-12-11T02:09:33.419Z,96681.00
2022-12-11T02:12:09.050Z,96678.84
2022-12-11T02:14:55.171Z,96674.63
2022-12-11T02:17:38.539Z,96679.63
2022-12-11T02:20:16.568Z,96672.91
2022-12-11T02:23:06.028Z,96677.94
2022-12-11T02:25:44.264Z,96683.75
2022-12-11T02:28:32.185Z,96675.09
2022-12-11T02:31:27.659Z,96672.44
2022-12-11T02:34:06.316Z,96678.50
2022-12-11T02:36:37.992Z,96675.13
2022-12-11T02:39:05.582Z,96668.84
2022-12-11T02:41:33.692Z,96670.91
2022-12-11T02:44:02.991Z,96680.31
2022-12-11T02:46:31.283Z,96678.16
2022-12-11T02:48:58.378Z,96674.19
2022-12-11T02:51:31.129Z,96675.34
2022-12-11T02:53:59.442Z,96680.59
2022-12-11T02:56:50.236Z,96670.03
2022-12-11T02:59:26.133Z,96670.50
2022-12-11T03:01:52.641Z,96678.75
2022-12-11T03:04:19.146Z,96685.31
2022-12-11T03:06:54.252Z,96672.34
2022-12-11T03:09:21.111Z,96669.50
2022-12-11T03:11:47.710Z,96660.06
2022-12-11T03:14:14.307Z,96669.06
2022-12-11T03:17:14.238Z,96663.31
2022-12-11T03:19:43.550Z,96665.25
2022-12-11T03:22:22.649Z,96668.88
2022-12-11T03:25:01.800Z,96669.31
2022-12-11T03:27:36.587Z,96675.41
2022-12-11T03:30:16.350Z,96668.13
2022-12-11T03:32:53.644Z,96664.16
2022-12-11T03:35:33.075Z,96667.53
2022-12-11T03:38:06.695Z,96662.81
2022-12-11T03:40:35.589Z,96663.34
2022-12-11T03:43:04.920Z,96666.53
2022-12-11T03:45:33.973Z,96665.94
2022-12-11T03:48:02.634Z,96670.31
2022-12-11T03:50:32.065Z,96663.53
2022-12-11T03:53:00.364Z,96662.81
2022-12-11T03:55:29.287Z,96663.78
2022-12-11T03:57:56.032Z,96660.75
2022-12-11T04:00:23.309Z,96668.00
2022-12-11T04:03:13.690Z,96661.94
2022-12-11T04:05:42.000Z,96660.81
2022-12-11T04:08:08.693Z,96657.28
2022-12-11T04:10:35.108Z,96645.78
2022-12-11T04:13:01.620Z,96648.66
2022-12-11T04:15:28.111Z,96647.91
2022-12-11T04:18:12.892Z,96644.44
2022-12-11T04:20:57.825Z,96636.16
2022-12-11T04:23:43.144Z,96634.31
2022-12-11T04:26:15.567Z,96631.88
2022-12-11T04:28:43.481Z,96630.22
2022-12-11T04:31:18.967Z,96626.88
2022-12-11T04:33:45.568Z,96623.28
2022-12-11T04:36:12.924Z,96623.09
2022-12-11T04:38:39.401Z,96626.75
2022-12-11T04:41:14.139Z,96626.97
2022-12-11T04:43:40.676Z,96630.75
2022-12-11T04:46:08.214Z,96622.81
2022-12-11T04:48:35.371Z,96625.81
2022-12-11T04:51:02.020Z,96615.22
2022-12-11T04:53:28.818Z,96622.03
2022-12-11T04:55:55.899Z,96624.09
2022-12-11T04:58:22.947Z,96620.03
2022-12-11T05:00:49.508Z,96611.34
2022-12-11T05:03:16.431Z,96614.25
2022-12-11T05:05:51.929Z,96615.50
2022-12-11T05:08:21.486Z,96613.88
2022-12-11T05:10:59.350Z,96616.91
2022-12-11T05:13:27.176Z,96624.16
2022-12-11T05:15:53.671Z,96627.81
2022-12-11T05:18:20.231Z,96627.13
2022-12-11T05:20:55.753Z,96629.88
2022-12-11T05:23:22.326Z,96626.16
2022-12-11T05:26:01.898Z,96632.47
2022-12-11T05:28:30.211Z,96613.09
2022-12-11T05:31:01.528Z,96618.13
2022-12-11T05:33:29.970Z,96618.31
2022-12-11T05:35:56.942Z,96615.22
2022-12-11T05:38:23.927Z,96625.34
2022-12-11T05:40:58.929Z,96636.66
2022-12-11T05:43:27.117Z,96629.56
2022-12-11T05:45:54.203Z,96627.53
2022-12-11T05:48:20.644Z,96623.63
2022-12-11T05:51:00.943Z,96615.06
2022-12-11T05:53:28.354Z,96612.53
2022-12-11T05:55:55.343Z,96613.81
2022-12-11T05:58:21.807Z,96611.88
2022-12-11T06:00:48.425Z,96615.41
2022-12-11T06:03:15.456Z,96614.88
2022-12-11T06:05:43.219Z,96616.94
2022-12-11T06:08:09.950Z,96622.22
2022-12-11T06:10:36.472Z,96617.47
2022-12-11T06:13:03.171Z,96617.81
2022-12-11T06:15:29.687Z,96616.72
2022-12-11T06:17:56.191Z,96605.53
2022-12-11T06:20:22.675Z,96606.00
2022-12-11T06:22:49.167Z,96597.88
2022-12-11T06:25:15.619Z,96609.75
2022-12-11T06:27:42.057Z,96599.84
2022-12-11T06:30:09.080Z,96599.25
2022-12-11T06:32:35.467Z,96600.41
2022-12-11T06:35:01.867Z,96598.72
2022-12-11T06:37:28.323Z,96591.72
2022-12-11T06:39:54.743Z,96606.22
2022-12-11T06:42:21.161Z,96610.16
2022-12-11T06:44:47.955Z,96606.41
2022-12-11T06:47:14.391Z,96610.78
2022-12-11T06:49:40.841Z,96612.75
2022-12-11T06:52:07.248Z,96612.75
2022-12-11T06:54:33.749Z,96614.13
2022-12-11T06:57:00.208Z,96612.75
2022-12-11T06:59:26.629Z,96614.06
2022-12-11T07:01:53.092Z,96608.44
2022-12-11T07:04:19.659Z,96629.22
2022-12-11T07:06:47.367Z,96628.44
2022-12-11T07:09:13.737Z,96632.97
2022-12-11T07:11:40.191Z,96624.50
2022-12-11T07:14:06.747Z,96633.09
2022-12-11T07:16:33.389Z,96628.97
2022-12-11T07:19:00.337Z,96627.56
2022-12-11T07:21:26.775Z,96625.88
2022-12-11T07:23:53.264Z,96631.13
2022-12-11T07:26:21.986Z,96630.25
2022-12-11T07:28:48.815Z,96621.63
2022-12-11T07:31:21.870Z,96620.63
2022-12-11T07:33:52.403Z,96627.22
2022-12-11T07:36:18.886Z,96618.09
2022-12-11T07:38:45.781Z,96632.38
2022-12-11T07:41:13.901Z,96626.03
2022-12-11T07:43:41.526Z,96627.81
2022-12-11T07:46:14.234Z,96623.88
2022-12-11T07:48:42.394Z,96623.66
2022-12-11T07:51:33.233Z,96627.50
2022-12-11T07:54:03.192Z,96622.91
2022-12-11T07:56:30.598Z,96620.94
2022-12-11T07:59:00.458Z,96626.97
2022-12-11T08:01:28.319Z,96617.25
2022-12-11T08:03:55.905Z,96621.56
2022-12-11T08:06:28.147Z,96622.38
2022-12-11T08:08:55.657Z,96622.31
2022-12-11T08:11:22.395Z,96626.13
2022-12-11T08:13:49.632Z,96632.47
2022-12-11T08:16:17.595Z,96626.91
2022-12-11T08:18:45.990Z,96624.69
2022-12-11T08:21:18.691Z,96626.22
2022-12-11T08:23:45.192Z,96625.16
2022-12-11T08:26:15.102Z,96625.69
2022-12-11T08:28:41.789Z,96623.41
2022-12-11T08:31:10.500Z,96629.03
2022-12-11T08:33:38.147Z,96627.97
2022-12-11T08:36:07.081Z,96628.56
2022-12-11T08:38:34.415Z,96625.41
2022-12-11T08:41:21.405Z,96630.31
2022-12-11T08:43:49.187Z,96637.59
2022-12-11T08:46:15.848Z,96629.16
2022-12-11T08:48:43.132Z,96639.59
2022-12-11T08:51:13.413Z,96634.25
2022-12-11T08:53:39.841Z,96636.38
2022-12-11T08:56:09.579Z,96633.38
2022-12-11T08:58:36.416Z,96633.22
2022-12-11T09:01:14.736Z,96628.44
2022-12-11T09:03:41.578Z,96629.75
2022-12-11T09:06:10.592Z,96622.59
2022-12-11T09:08:37.462Z,96628.16
2022-12-11T09:11:09.883Z,96619.81
2022-12-11T09:13:37.206Z,96621.22
2022-12-11T09:16:09.387Z,96614.09
2022-12-11T09:18:37.575Z,96607.63
2022-12-11T09:21:09.694Z,96607.66
2022-12-11T09:23:36.393Z,96603.59
2022-12-11T09:26:12.035Z,96604.63
2022-12-11T09:28:45.732Z,96606.09
2022-12-11T09:31:19.079Z,96609.56
2022-12-11T09:33:46.229Z,96606.66
2022-12-11T09:36:12.976Z,96606.28
2022-12-11T09:38:39.608Z,96611.56
2022-12-11T09:41:37.019Z,96603.69
2022-12-11T09:44:20.802Z,96596.19
2022-12-11T09:46:48.954Z,96603.97
2022-12-11T09:49:27.761Z,96603.03
2022-12-11T09:52:03.673Z,96598.78
2022-12-11T09:54:30.181Z,96591.16
2022-12-11T09:57:18.587Z,96591.34
2022-12-11T10:00:04.946Z,96591.34
2022-12-11T10:02:47.746Z,96590.06
2022-12-11T10:05:51.116Z,96588.44
2022-12-11T10:08:31.365Z,96584.28
2022-12-11T10:11:16.305Z,96581.13
2022-12-11T10:14:01.599Z,96583.31
2022-12-11T10:16:44.887Z,96574.97
2022-12-11T10:19:21.996Z,96578.81
2022-12-11T10:21:50.900Z,96575.44
2022-12-11T10:27:39.756Z,96569.69
2022-12-11T10:30:30.455Z,96564.94
2022-12-11T10:33:11.193Z,96564.72
2022-12-11T10:35:49.944Z,96558.16
2022-12-11T10:38:26.248Z,96560.97
2022-12-11T10:40:57.191Z,96552.94
2022-12-11T10:43:48.086Z,96554.63
2022-12-11T10:46:17.971Z,96548.00
2022-12-11T10:48:56.041Z,96548.63
2022-12-11T10:51:25.779Z,96546.19
2022-12-11T10:53:55.504Z,96538.69
2022-12-11T10:56:27.416Z,96536.25
2022-12-11T10:58:56.151Z,96529.75
2022-12-11T11:01:25.719Z,96536.06
2022-12-11T11:04:13.683Z,96538.56
2022-12-11T11:06:40.151Z,96536.41
2022-12-11T11:09:35.289Z,96528.84
2022-12-11T11:12:07.598Z,96533.56
2022-12-11T11:14:34.607Z,96524.63
2022-12-11T11:17:01.361Z,96522.19
2022-12-11T11:19:32.170Z,96524.47
2022-12-11T11:22:19.259Z,96524.31
2022-12-11T11:24:58.983Z,96526.00
2022-12-11T11:27:45.681Z,96526.25
2022-12-11T11:30:22.724Z,96521.53
2022-12-11T11:32:54.291Z,96515.53
2022-12-11T11:35:26.569Z,96517.59
2022-12-11T11:38:14.728Z,96518.19
2022-12-11T11:41:08.807Z,96517.41
2022-12-11T11:43:46.753Z,96508.69
2022-12-11T11:46:33.379Z,96511.19
2022-12-11T11:49:13.124Z,96496.31
2022-12-11T11:52:02.744Z,96503.50
2022-12-11T11:54:51.251Z,96504.78
2022-12-11T11:57:24.753Z,96497.91
2022-12-11T11:59:58.071Z,96499.13
2022-12-11T12:02:24.709Z,96502.28
2022-12-11T12:04:51.892Z,96507.59
2022-12-11T12:07:32.102Z,96507.81
2022-12-11T12:10:26.373Z,96502.44
2022-12-11T12:13:44.453Z,96500.84
2022-12-11T12:16:01.653Z,96500.66
2022-12-11T12:18:43.011Z,96504.25
2022-12-11T12:21:15.056Z,96507.22
2022-12-11T12:24:25.757Z,96505.59
2022-12-11T12:27:01.052Z,96500.72
2022-12-11T12:30:03.641Z,96496.63
2022-12-11T12:33:02.275Z,96489.69
2022-12-11T12:35:42.339Z,96500.16
2022-12-11T12:38:23.582Z,96482.78
2022-12-11T12:41:02.095Z,96489.34
2022-12-11T12:43:54.872Z,96490.56
2022-12-11T12:47:00.058Z,96487.13
2022-12-11T12:49:40.712Z,96482.38
2022-12-11T12:52:15.427Z,96482.38
2022-12-11T12:55:03.960Z,96478.31
2022-12-11T12:57:32.152Z,96479.97
2022-12-11T12:59:59.037Z,96479.09
2022-12-11T13:02:26.213Z,96481.59
2022-12-11T13:05:03.319Z,96482.34
2022-12-11T13:07:31.631Z,96483.59
2022-12-11T13:10:24.320Z,96482.03
2022-12-11T13:12:50.843Z,96478.31
2022-12-11T13:15:29.727Z,96480.97
2022-12-11T13:17:56.418Z,96481.16
2022-12-11T13:20:26.092Z,96481.38
2022-12-11T13:23:17.132Z,96473.00
2022-12-11T13:25:46.343Z,96471.16
2022-12-11T13:28:47.083Z,96476.13
2022-12-11T13:31:16.334Z,96478.50
2022-12-11T13:33:48.522Z,96475.94
2022-12-11T13:36:25.505Z,96478.44
2022-12-11T13:39:00.466Z,96481.56
2022-12-11T13:41:28.306Z,96487.94
2022-12-11T13:43:56.938Z,96488.22
2022-12-11T13:46:30.531Z,96490.44
2022-12-11T13:49:00.892Z,96483.84
2022-12-11T13:51:31.316Z,96479.97
2022-12-11T13:54:17.295Z,96487.75
2022-12-11T13:56:54.087Z,96490.09
2022-12-11T13:59:24.988Z,96482.13
2022-12-11T14:01:55.502Z,96485.59
2022-12-11T14:04:22.913Z,96493.59
2022-12-11T14:06:49.568Z,96487.84
2022-12-11T14:09:22.464Z,96500.31
2022-12-11T14:11:55.044Z,96491.91
2022-12-11T14:14:43.230Z,96500.00
2022-12-11T14:17:15.050Z,96506.59
2022-12-11T14:19:48.400Z,96496.16
2022-12-11T14:22:20.365Z,96500.16
2022-12-11T14:24:55.447Z,96504.63
2022-12-11T14:27:22.527Z,96509.75
2022-12-11T14:29:49.268Z,96509.53
2022-12-11T14:32:31.026Z,96504.72
2022-12-11T14:34:58.520Z,96514.31
2022-12-11T14:37:26.413Z,96514.53
2022-12-11T14:40:01.108Z,96515.75
2022-12-11T14:42:32.379Z,96520.16
2022-12-11T14:45:30.605Z,96510.75
2022-12-11T14:47:58.398Z,96514.84
2022-12-11T14:50:29.246Z,96516.66
2022-12-11T14:53:02.139Z,96517.09
2022-12-11T14:55:31.167Z,96521.00
2022-12-11T14:58:00.467Z,96526.47
2022-12-11T15:00:30.528Z,96518.50
2022-12-11T15:02:58.552Z,96523.16
2022-12-11T15:05:25.695Z,96520.97
2022-12-11T15:07:58.139Z,96525.47
2022-12-11T15:10:36.624Z,96523.97
2022-12-11T15:13:07.868Z,96530.28
2022-12-11T15:15:46.672Z,96525.13
2022-12-11T15:18:24.504Z,96536.97
2022-12-11T15:20:53.930Z,96531.19
2022-12-11T15:23:20.832Z,96523.00
2022-12-11T15:25:52.950Z,96529.41
2022-12-11T15:28:36.230Z,96539.63
2022-12-11T15:31:25.004Z,96536.00
2022-12-11T15:33:51.527Z,96539.22
2022-12-11T15:36:26.717Z,96550.28
2022-12-11T15:38:53.312Z,96553.16
2022-12-11T15:41:21.451Z,96550.81
2022-12-11T15:43:48.039Z,96550.25
2022-12-11T15:46:14.701Z,96546.38
2022-12-11T15:48:41.188Z,96548.88
2022-12-11T15:51:07.629Z,96550.72
2022-12-11T15:53:34.064Z,96552.94
2022-12-11T15:56:01.306Z,96561.50
2022-12-11T15:58:28.673Z,96560.03
2022-12-11T16:00:55.196Z,96560.34
2022-12-11T16:03:23.009Z,96559.72
2022-12-11T16:05:50.542Z,96559.59
2022-12-11T16:08:20.776Z,96562.66
2022-12-11T16:10:48.129Z,96558.06
2022-12-11T16:13:14.869Z,96558.81
2022-12-11T16:15:46.322Z,96568.44
2022-12-11T16:18:18.890Z,96566.03
2022-12-11T16:20:46.914Z,96564.91
2022-12-11T16:23:14.627Z,96561.00
2022-12-11T16:25:42.564Z,96558.88
2022-12-11T16:28:11.130Z,96556.38
2022-12-11T16:30:38.105Z,96562.38
2022-12-11T16:33:12.071Z,96554.09
2022-12-11T16:35:39.835Z,96560.66
2022-12-11T16:38:07.628Z,96562.38
2022-12-11T16:40:34.072Z,96559.47
2022-12-11T16:43:00.580Z,96560.78
2022-12-11T16:45:27.936Z,96557.47
2022-12-11T16:47:54.831Z,96553.28
2022-12-11T16:50:21.376Z,96556.88
2022-12-11T16:52:47.874Z,96557.66
2022-12-11T16:55:15.530Z,96553.09
2022-12-11T16:57:42.178Z,96561.03
2022-12-11T17:00:11.989Z,96564.97
2022-12-11T17:02:38.544Z,96559.22
2022-12-11T17:05:05.378Z,96558.22
2022-12-11T17:07:32.576Z,96554.53
2022-12-11T17:10:00.533Z,96555.00
2022-12-11T17:12:27.956Z,96558.84
2022-12-11T17:14:55.753Z,96553.19
2022-12-11T17:17:22.266Z,96552.69
2022-12-11T17:19:49.109Z,96560.66
2022-12-11T17:22:15.586Z,96555.72
2022-12-11T17:24:42.033Z,96551.94
2022-12-11T17:27:08.477Z,96550.50
2022-12-11T17:29:34.965Z,96543.25
2022-12-11T17:32:03.095Z,96550.19
2022-12-11T17:34:36.139Z,96552.28
2022-12-11T17:37:04.988Z,96559.53
2022-12-11T17:39:31.556Z,96549.63
2022-12-11T17:41:57.987Z,96547.47
2022-12-11T17:44:26.388Z,96545.25
2022-12-11T17:46:53.007Z,96546.25
2022-12-11T17:49:19.770Z,96544.25
2022-12-11T17:51:47.767Z,96542.72
2022-12-11T17:54:14.231Z,96539.28
2022-12-11T17:56:41.097Z,96540.66
2022-12-11T17:59:07.560Z,96537.56
2022-12-11T18:01:34.512Z,96534.28
2022-12-11T18:04:04.172Z,96540.00
2022-12-11T18:06:31.446Z,96538.63
2022-12-11T18:08:58.144Z,96535.91
2022-12-11T18:11:24.690Z,96530.63
2022-12-11T18:13:52.824Z,96532.47
2022-12-11T18:16:32.453Z,96532.91
2022-12-11T18:18:59.057Z,96531.13
2022-12-11T18:21:29.032Z,96537.84
2022-12-11T18:23:55.956Z,96541.59
2022-12-11T18:26:23.047Z,96551.38
2022-12-11T18:28:50.897Z,96543.25
2022-12-11T18:31:18.543Z,96541.72
2022-12-11T18:33:45.814Z,96545.03
2022-12-11T18:36:14.263Z,96537.19
2022-12-11T18:38:42.180Z,96541.47
2022-12-11T18:41:10.732Z,96533.44
2022-12-11T18:43:37.396Z,96535.16
2022-12-11T18:46:08.476Z,96538.53
2022-12-11T18:48:35.104Z,96543.47
2022-12-11T18:51:11.072Z,96545.03
2022-12-11T18:53:41.385Z,96535.81
2022-12-11T18:56:10.307Z,96545.03
2022-12-11T18:58:37.110Z,96539.47
2022-12-11T19:01:14.030Z,96545.84
2022-12-11T19:03:43.749Z,96541.84
2022-12-11T19:06:13.464Z,96541.84
2022-12-11T19:08:40.002Z,96539.47
2022-12-11T19:11:06.856Z,96540.88
2022-12-11T19:13:33.955Z,96538.22
2022-12-11T19:16:00.943Z,96539.75
2022-12-11T19:18:27.762Z,96546.25
2022-12-11T19:21:03.272Z,96534.38
2022-12-11T19:23:33.115Z,96536.72
2022-12-11T19:25:59.491Z,96540.41
2022-12-11T19:28:25.894Z,96546.13
2022-12-11T19:30:52.361Z,96539.75
2022-12-11T19:33:18.858Z,96542.06
2022-12-11T19:35:45.313Z,96543.22
2022-12-11T19:38:12.814Z,96541.94
2022-12-11T19:40:43.679Z,96542.31
2022-12-11T19:43:10.731Z,96543.31
2022-12-11T19:45:37.417Z,96544.91
2022-12-11T19:48:04.201Z,96546.88
2022-12-11T19:50:30.737Z,96556.59
2022-12-11T19:52:57.241Z,96552.03
2022-12-11T19:55:23.714Z,96554.44
2022-12-11T19:57:50.168Z,96548.84
2022-12-11T20:00:16.930Z,96550.16
2022-12-11T20:02:43.632Z,96558.31
2022-12-11T20:05:11.194Z,96557.59
2022-12-11T20:07:38.681Z,96561.66
2022-12-11T20:10:05.695Z,96573.88
2022-12-11T20:12:32.607Z,96576.28
2022-12-11T20:14:59.068Z,96566.13
2022-12-11T20:17:25.658Z,96568.63
2022-12-11T20:19:52.171Z,96575.56
2022-12-11T20:22:18.644Z,96581.44
2022-12-11T20:24:45.080Z,96572.19
2022-12-11T20:27:12.419Z,96574.22
2022-12-11T20:29:39.182Z,96574.88
2022-12-11T20:32:05.651Z,96570.53
2022-12-11T20:34:32.118Z,96577.09
2022-12-11T20:37:00.128Z,96572.91
2022-12-11T20:39:27.059Z,96572.22
2022-12-11T20:41:53.553Z,96566.81
2022-12-11T20:44:20.188Z,96580.06
2022-12-11T20:46:46.603Z,96573.09
2022-12-11T20:49:13.291Z,96572.59
2022-12-11T20:51:40.751Z,96572.59
2022-12-11T20:54:07.228Z,96582.00
2022-12-11T20:56:33.683Z,96582.97
2022-12-11T20:59:00.802Z,96589.25
2022-12-11T21:01:30.623Z,96585.28
2022-12-11T21:03:57.891Z,96581.47
2022-12-11T21:06:33.599Z,96585.00
2022-12-11T21:09:03.178Z,96578.22
2022-12-11T21:11:29.699Z,96585.78
2022-12-11T21:13:56.309Z,96583.28
2022-12-11T21:16:23.163Z,96577.00
2022-12-11T21:18:49.767Z,96580.63
2022-12-11T21:21:16.875Z,96575.13
2022-12-11T21:23:43.910Z,96582.00
2022-12-11T21:26:10.640Z,96579.81
2022-12-11T21:28:37.099Z,96582.28
2022-12-11T21:31:06.563Z,96590.50
2022-12-11T21:33:33.718Z,96575.47
2022-12-11T21:36:01.020Z,96582.75
2022-12-11T21:38:28.141Z,96579.31
2022-12-11T21:40:55.368Z,96574.38
2022-12-11T21:43:22.560Z,96584.97
2022-12-11T21:46:04.895Z,96584.72
2022-12-11T21:48:31.768Z,96590.09
2022-12-11T21:51:11.867Z,96588.19
2022-12-11T21:53:38.888Z,96589.91
2022-12-11T21:56:17.920Z,96591.13
2022-12-11T21:58:45.141Z,96593.09
2022-12-11T22:01:18.737Z,96593.09
2022-12-11T22:03:45.612Z,96601.00
2022-12-11T22:06:12.494Z,96595.41
2022-12-11T22:08:39.092Z,96599.63
2022-12-11T22:11:05.946Z,96595.53
2022-12-11T22:13:32.517Z,96592.63
2022-12-11T22:15:59.009Z,96596.75
2022-12-11T22:18:28.414Z,96594.44
2022-12-11T22:20:54.887Z,96594.63
2022-12-11T22:23:22.046Z,96606.88
2022-12-11T22:25:51.375Z,96604.06
2022-12-11T22:28:19.065Z,96603.22
2022-12-11T22:30:46.102Z,96604.50
2022-12-11T22:33:12.628Z,96598.31
2022-12-11T22:35:39.193Z,96595.84
2022-12-11T22:38:06.549Z,96590.28
2022-12-11T22:40:33.393Z,96599.16
2022-12-11T22:42:59.957Z,96598.25
2022-12-11T22:45:26.673Z,96589.50
2022-12-11T22:47:53.178Z,96596.16
2022-12-11T22:50:19.650Z,96605.47
2022-12-11T22:52:46.088Z,96600.34
2022-12-11T22:55:12.804Z,96596.44
2022-12-11T22:57:39.512Z,96588.41
2022-12-11T23:00:11.032Z,96593.59
2022-12-11T23:02:38.173Z,96587.19
2022-12-11T23:05:05.406Z,96585.06
2022-12-11T23:07:32.685Z,96588.19
2022-12-11T23:09:59.427Z,96582.06
2022-12-11T23:12:25.823Z,96589.34
2022-12-11T23:14:52.371Z,96585.72
2022-12-11T23:17:18.839Z,96589.75
2022-12-11T23:19:46.076Z,96584.16
2022-12-11T23:22:13.260Z,96582.31
2022-12-11T23:24:40.112Z,96584.53
2022-12-11T23:27:06.895Z,96594.50
2022-12-11T23:29:33.606Z,96595.41
2022-12-11T23:32:00.078Z,96592.38
2022-12-11T23:34:26.627Z,96591.38
2022-12-11T23:36:53.169Z,96597.78
2022-12-11T23:39:19.562Z,96594.38
2022-12-11T23:41:46.322Z,96598.03
2022-12-11T23:44:12.831Z,96597.59
2022-12-11T23:46:39.332Z,96601.19
2022-12-11T23:49:05.859Z,96595.47
2022-12-11T23:51:32.297Z,96594.28
2022-12-11T23:53:58.746Z,96601.03
2022-12-11T23:56:28.275Z,96589.81
2022-12-11T23:58:56.395Z,96596.78
